Time;durP1;ratioP1;P1;durP2;ratioP2;P2;SDS_P1;SDS_P2;PMS_P1;PMS_P2;Temp;Humidity;BMP_temperature;BMP_pressure;BME280_temperature;BME280_humidity;BME280_pressure;Samples;Min_cycle;Max_cycle;Signal;HPM_P1;HPM_P2
2023/08/02 00:00:36;;;;;;;5.35;2.03;;;;;;;14.16;98.44;98077.03;5032986;28;20053;-47
2023/08/02 00:03:04;;;;;;;3.35;1.83;;;;;;;14.17;98.81;98071.03;5031735;28;20385;-44
2023/08/02 00:05:31;;;;;;;10.90;2.10;;;;;;;14.17;99.19;98056.34;5031871;28;20041;-45
2023/08/02 00:07:58;;;;;;;4.18;1.60;;;;;;;14.17;99.62;98057.13;5032825;28;20115;-46
2023/08/02 00:10:25;;;;;;;5.13;1.80;;;;;;;14.20;99.60;98050.69;5031371;28;20060;-45
2023/08/02 00:12:52;;;;;;;10.13;1.60;;;;;;;14.23;99.83;98044.25;5030541;28;20516;-45
2023/08/02 00:15:19;;;;;;;5.57;1.58;;;;;;;14.26;99.95;98023.13;5031751;28;20499;-46
2023/08/02 00:17:47;;;;;;;8.38;1.90;;;;;;;14.24;100.00;98034.72;5032673;28;20041;-45
2023/08/02 00:20:14;;;;;;;5.38;2.13;;;;;;;14.26;100.00;98009.22;5032796;28;20076;-45
2023/08/02 00:22:40;;;;;;;3.97;1.58;;;;;;;14.28;100.00;98013.13;5031675;28;20200;-49
2023/08/02 00:25:08;;;;;;;5.57;1.90;;;;;;;14.27;100.00;98000.41;5030949;28;20049;-45
2023/08/02 00:27:34;;;;;;;5.80;1.80;;;;;;;14.27;100.00;98003.19;5032251;28;20091;-45
2023/08/02 00:30:02;;;;;;;5.57;1.90;;;;;;;14.27;100.00;97988.53;5032105;28;20045;-45
2023/08/02 00:32:29;;;;;;;4.57;1.50;;;;;;;14.28;100.00;98002.00;5023363;28;20553;-45
2023/08/02 00:34:56;;;;;;;8.48;2.00;;;;;;;14.27;100.00;97988.53;5032622;28;20049;-44
2023/08/02 00:37:22;;;;;;;6.22;1.50;;;;;;;14.28;100.00;97979.72;5027193;28;20041;-45
2023/08/02 00:39:52;;;;;;;6.50;1.73;;;;;;;14.29;100.00;97967.38;5027309;28;20085;-46
2023/08/02 00:42:20;;;;;;;5.15;1.23;;;;;;;14.30;100.00;97962.56;5029200;28;20045;-45
2023/08/02 00:44:46;;;;;;;5.30;1.30;;;;;;;14.29;100.00;97970.16;5027577;28;20757;-44
2023/08/02 00:47:14;;;;;;;9.30;1.48;;;;;;;14.29;100.00;97952.69;5026464;28;20053;-45
2023/08/02 00:49:40;;;;;;;4.53;1.73;;;;;;;14.28;100.00;97951.09;5031104;28;20496;-45
2023/08/02 00:52:07;;;;;;;4.63;1.77;;;;;;;14.28;100.00;97942.75;5029767;28;20049;-45
2023/08/02 00:54:35;;;;;;;9.00;1.83;;;;;;;14.27;100.00;97941.22;5027412;28;20483;-45
2023/08/02 00:57:02;;;;;;;5.00;2.00;;;;;;;14.23;100.00;97938.50;5012438;28;20087;-44
2023/08/02 00:59:29;;;;;;;5.18;1.60;;;;;;;14.24;100.00;97939.31;5031790;28;20045;-44
2023/08/02 01:01:57;;;;;;;3.67;0.90;;;;;;;14.21;100.00;97923.47;5025984;28;20042;-46
2023/08/02 01:04:24;;;;;;;4.88;1.25;;;;;;;14.20;100.00;97922.69;5030347;28;20045;-45
2023/08/02 01:07:04;;;;;;;6.22;1.33;;;;;;;14.22;100.00;97925.03;5031449;28;20043;-45
2023/08/02 01:10:06;;;;;;;4.97;1.38;;;;;;;14.19;100.00;97906.44;5030900;28;20483;-45
2023/08/02 01:12:35;;;;;;;5.22;1.15;;;;;;;14.16;100.00;97907.31;4990186;28;20116;-45
2023/08/02 01:15:03;;;;;;;6.18;1.45;;;;;;;14.13;100.00;97905.41;5028219;28;20053;-44
2023/08/02 01:17:31;;;;;;;3.33;1.75;;;;;;;14.13;100.00;97899.84;5031554;28;20045;-44
2023/08/02 01:20:05;;;;;;;7.30;1.80;;;;;;;14.11;100.00;97885.59;5030343;28;20144;-44
2023/08/02 01:22:32;;;;;;;6.43;1.30;;;;;;;14.12;100.00;97887.13;5031928;28;20045;-44
2023/08/02 01:24:59;;;;;;;8.85;1.40;;;;;;;14.14;100.00;97895.84;5030969;28;20049;-46
2023/08/02 01:27:34;;;;;;;6.53;1.35;;;;;;;14.13;100.00;97872.03;5030757;28;20049;-47
2023/08/02 01:30:06;;;;;;;6.22;2.30;;;;;;;14.15;100.00;97875.13;5022159;28;20037;-46
2023/08/02 01:32:33;;;;;;;8.90;1.65;;;;;;;14.16;100.00;97871.16;5029242;28;20049;-46
2023/08/02 01:35:01;;;;;;;7.25;1.45;;;;;;;14.16;100.00;97865.59;5030527;28;20052;-45
2023/08/02 01:37:28;;;;;;;7.22;1.83;;;;;;;14.16;100.00;97865.59;5028131;28;20049;-45
2023/08/02 01:39:54;;;;;;;3.88;1.15;;;;;;;14.14;100.00;97865.25;5028420;28;20049;-45
2023/08/02 01:42:21;;;;;;;4.15;1.52;;;;;;;14.12;100.00;97856.53;5029922;28;20033;-45
2023/08/02 01:44:48;;;;;;;4.30;1.20;;;;;;;14.12;100.00;97853.75;5028306;28;20042;-46
2023/08/02 01:47:17;;;;;;;7.25;1.52;;;;;;;14.14;100.00;97848.56;5026290;28;20400;-47
2023/08/02 01:49:44;;;;;;;3.30;1.20;;;;;;;14.14;100.00;97846.53;5025719;28;20038;-45
2023/08/02 01:52:11;;;;;;;2.35;1.10;;;;;;;14.14;100.00;97843.75;5025389;28;20504;-47
2023/08/02 01:54:39;;;;;;;2.78;0.82;;;;;;;14.15;100.00;97838.97;5022551;28;20511;-45
2023/08/02 01:57:06;;;;;;;6.85;1.00;;;;;;;14.15;100.00;97836.19;5029995;28;20041;-48
2023/08/02 01:59:33;;;;;;;4.50;1.40;;;;;;;14.13;100.00;97821.94;5031657;28;20046;-46
2023/08/02 02:02:00;;;;;;;7.35;1.20;;;;;;;14.12;100.00;97820.38;5033982;28;20060;-45
2023/08/02 02:04:27;;;;;;;5.85;1.48;;;;;;;14.09;100.00;97813.69;5027671;28;20065;-45
2023/08/02 02:06:54;;;;;;;3.20;0.70;;;;;;;14.06;100.00;97808.22;5035262;28;20045;-49
2023/08/02 02:09:21;;;;;;;1.70;0.98;;;;;;;14.03;100.00;97810.66;5034327;28;20025;-45
2023/08/02 02:11:49;;;;;;;2.42;1.13;;;;;;;14.04;100.00;97806.66;5032122;28;20454;-46
2023/08/02 02:14:15;;;;;;;2.80;0.90;;;;;;;14.02;100.00;97797.19;5033766;28;20057;-45
2023/08/02 02:16:42;;;;;;;3.97;1.45;;;;;;;14.01;100.00;97803.97;5034960;28;20438;-44
2023/08/02 02:19:10;;;;;;;3.92;1.23;;;;;;;14.00;100.00;97789.28;5034835;28;20395;-46
2023/08/02 02:21:37;;;;;;;8.75;1.80;;;;;;;13.98;100.00;97782.59;5033691;28;20079;-45
2023/08/02 02:24:05;;;;;;;7.30;1.73;;;;;;;13.96;100.00;97780.25;5034915;28;20103;-45
2023/08/02 02:26:31;;;;;;;4.32;1.75;;;;;;;13.93;100.00;97774.78;5034556;28;20042;-45
2023/08/02 02:28:58;;;;;;;6.75;1.70;;;;;;;13.90;100.00;97765.31;5031872;28;20484;-45
2023/08/02 02:31:25;;;;;;;3.83;1.08;;;;;;;13.89;100.00;97763.78;5033630;28;20041;-44
2023/08/02 02:33:52;;;;;;;7.38;1.38;;;;;;;13.86;100.00;97756.31;5030715;28;20373;-44
2023/08/02 02:36:19;;;;;;;2.78;1.48;;;;;;;13.84;100.00;97747.63;5034724;28;20080;-45
2023/08/02 02:38:46;;;;;;;5.28;1.67;;;;;;;13.79;100.00;97748.16;5033490;28;20119;-44
2023/08/02 02:41:12;;;;;;;2.15;0.90;;;;;;;13.79;100.00;97736.25;5031111;28;20033;-45
2023/08/02 02:43:39;;;;;;;2.53;1.10;;;;;;;13.78;100.00;97729.13;5031282;28;20177;-45
2023/08/02 02:46:06;;;;;;;4.28;1.50;;;;;;;13.78;100.00;97729.91;5031837;28;20586;-46
2023/08/02 02:48:33;;;;;;;4.07;1.25;;;;;;;13.77;100.00;97717.22;5032158;28;20053;-44
2023/08/02 02:51:00;;;;;;;4.45;1.52;;;;;;;13.77;100.00;97728.34;5031410;28;20046;-45
2023/08/02 02:53:27;;;;;;;5.45;2.00;;;;;;;13.76;100.00;97715.69;5031716;28;20060;-47
2023/08/02 02:55:54;;;;;;;3.75;1.25;;;;;;;13.73;100.00;97711.00;5033668;28;20052;-48
2023/08/02 02:58:20;;;;;;;3.35;1.33;;;;;;;13.69;100.00;97704.75;5031355;28;20492;-45
2023/08/02 03:00:47;;;;;;;6.45;1.25;;;;;;;13.68;100.00;97696.84;5028716;28;20141;-45
2023/08/02 03:03:15;;;;;;;7.95;1.30;;;;;;;13.65;100.00;97697.72;5031535;28;20042;-44
2023/08/02 03:05:42;;;;;;;9.65;2.00;;;;;;;13.65;100.00;97687.38;5033104;28;20053;-45
2023/08/02 03:08:09;;;;;;;4.60;1.35;;;;;;;13.66;100.00;97677.81;5033218;28;20065;-45
2023/08/02 03:10:37;;;;;;;9.30;2.33;;;;;;;13.65;100.00;97679.06;5031127;28;20056;-45
2023/08/02 03:13:03;;;;;;;9.55;3.00;;;;;;;13.65;100.00;97670.72;5031386;28;20103;-45
2023/08/02 03:15:30;;;;;;;6.63;2.58;;;;;;;13.65;100.00;97675.47;5032781;28;20112;-45
2023/08/02 03:17:57;;;;;;;4.00;1.83;;;;;;;13.63;100.00;97672.38;5043929;28;20045;-45
2023/08/02 03:20:24;;;;;;;7.82;1.73;;;;;;;13.59;100.00;97678.03;5032605;28;20103;-45
2023/08/02 03:22:51;;;;;;;8.38;1.38;;;;;;;13.58;100.00;97670.13;5033870;28;20484;-44
2023/08/02 03:25:17;;;;;;;5.82;1.50;;;;;;;13.58;100.00;97670.88;5030634;28;20050;-45
2023/08/02 03:27:44;;;;;;;7.95;1.45;;;;;;;13.58;100.00;97662.56;5032367;28;20526;-44
2023/08/02 03:30:11;;;;;;;5.50;1.40;;;;;;;13.60;100.00;97662.13;5033270;28;20550;-45
2023/08/02 03:32:38;;;;;;;4.35;1.55;;;;;;;13.59;100.00;97660.56;5032399;28;20064;-45
2023/08/02 03:35:05;;;;;;;3.58;1.23;;;;;;;13.59;100.00;97666.91;5033353;28;20045;-46
2023/08/02 03:37:32;;;;;;;7.32;1.67;;;;;;;13.59;100.00;97653.00;5031992;28;20099;-45
2023/08/02 03:39:59;;;;;;;10.38;1.55;;;;;;;13.59;100.00;97639.09;5033840;28;20046;-44
2023/08/02 03:42:26;;;;;;;8.88;1.45;;;;;;;13.58;100.00;97634.75;5033004;28;20152;-45
2023/08/02 03:44:53;;;;;;;5.18;1.42;;;;;;;13.59;100.00;97639.09;5032398;28;20038;-45
2023/08/02 03:47:20;;;;;;;5.65;1.38;;;;;;;13.56;100.00;97639.97;5031674;28;20056;-45
2023/08/02 03:49:47;;;;;;;3.08;1.27;;;;;;;13.54;100.00;97625.75;5032478;28;20085;-45
2023/08/02 03:52:14;;;;;;;11.27;1.38;;;;;;;13.52;100.00;97619.84;5033008;28;20057;-49
2023/08/02 03:54:41;;;;;;;6.93;1.48;;;;;;;13.51;100.00;97626.63;5031894;28;20050;-45
2023/08/02 03:57:08;;;;;;;7.10;2.03;;;;;;;13.53;100.00;97618.63;5033123;28;20041;-44
2023/08/02 03:59:35;;;;;;;8.73;1.40;;;;;;;13.52;100.00;97611.53;5031064;28;20466;-45
2023/08/02 04:02:02;;;;;;;3.55;1.08;;;;;;;13.54;100.00;97603.50;5030750;28;20387;-44
2023/08/02 04:04:29;;;;;;;5.97;1.27;;;;;;;13.54;100.00;97605.50;5029443;28;20049;-45
2023/08/02 04:06:56;;;;;;;7.93;1.30;;;;;;;13.52;100.00;97597.63;5031486;28;20037;-45
2023/08/02 04:09:23;;;;;;;4.38;0.82;;;;;;;13.52;100.00;97605.19;5040609;28;20411;-46
2023/08/02 04:11:49;;;;;;;5.55;0.90;;;;;;;13.50;100.00;97605.63;5027648;28;20527;-45
2023/08/02 04:14:17;;;;;;;7.07;1.30;;;;;;;13.50;100.00;97608.41;5031679;28;20107;-44
2023/08/02 04:16:43;;;;;;;7.05;1.48;;;;;;;13.51;100.00;97593.28;5029741;28;20123;-46
2023/08/02 04:19:11;;;;;;;8.57;1.13;;;;;;;13.56;100.00;97600.28;5031238;28;20065;-47
2023/08/02 04:21:38;;;;;;;7.15;2.22;;;;;;;13.59;100.00;97600.19;5029171;28;20069;-44
2023/08/02 04:24:05;;;;;;;8.65;2.10;;;;;;;13.63;100.00;97600.88;5031124;28;20049;-45
2023/08/02 04:26:33;;;;;;;5.22;1.27;;;;;;;13.64;100.00;97588.53;5028384;28;20141;-45
2023/08/02 04:28:59;;;;;;;8.85;1.50;;;;;;;13.66;100.00;97588.84;5031255;28;20041;-45
2023/08/02 04:31:26;;;;;;;12.48;2.15;;;;;;;13.67;100.00;97579.31;5029317;28;20060;-46
2023/08/02 04:33:55;;;;;;;12.07;1.92;;;;;;;13.69;100.00;97582.41;5027605;28;20124;-47
2023/08/02 04:36:21;;;;;;;12.98;3.03;;;;;;;13.71;100.00;97580.00;5030495;28;20077;-45
2023/08/02 04:38:52;;;;;;;6.97;1.42;;;;;;;13.72;100.00;97578.75;5031148;28;20442;-45
2023/08/02 04:41:19;;;;;;;4.80;1.20;;;;;;;13.72;100.00;97581.53;5030577;28;20044;-45
2023/08/02 04:43:47;;;;;;;6.60;1.20;;;;;;;13.72;100.00;97575.97;5030436;28;20048;-46
2023/08/02 04:46:14;;;;;;;7.40;1.40;;;;;;;13.74;100.00;97572.75;5024824;28;20140;-46
2023/08/02 04:48:41;;;;;;;5.65;1.20;;;;;;;13.76;100.00;97571.09;5030922;28;20041;-45
2023/08/02 04:51:08;;;;;;;4.88;1.30;;;;;;;13.77;100.00;97561.50;5029340;28;20038;-45
2023/08/02 04:53:35;;;;;;;5.25;1.27;;;;;;;13.78;100.00;97563.09;5029215;28;20045;-44
2023/08/02 04:56:02;;;;;;;9.93;1.80;;;;;;;13.80;100.00;97566.19;5028356;28;20107;-45
2023/08/02 04:58:29;;;;;;;7.45;1.98;;;;;;;13.83;100.00;97558.97;5028916;28;20052;-49
2023/08/02 05:01:01;;;;;;;3.55;1.05;;;;;;;13.84;100.00;97566.09;5027511;28;20041;-44
2023/08/02 05:03:28;;;;;;;;;;;;;;;13.82;100.00;97555.41;5030323;28;20565;-45
2023/08/02 05:06:01;;;;;;;6.50;1.17;;;;;;;13.80;100.00;97566.19;5029265;28;19963;-45
2023/08/02 05:08:35;;;;;;;7.03;1.27;;;;;;;13.80;100.00;97559.84;5027556;28;20068;-46
2023/08/02 05:11:05;;;;;;;12.63;1.90;;;;;;;13.82;100.00;97552.63;5029332;28;20037;-48
2023/08/02 05:13:33;;;;;;;2.50;1.70;;;;;;;13.84;100.00;97555.75;5029025;28;20491;-49
2023/08/02 05:16:01;;;;;;;5.38;1.20;;;;;;;13.88;100.00;97555.63;5023654;28;20053;-45
2023/08/02 05:18:28;;;;;;;6.90;1.50;;;;;;;13.91;100.00;97557.53;5031151;28;20087;-45
2023/08/02 05:20:57;;;;;;;7.90;1.10;;;;;;;13.92;100.00;97548.75;5040168;28;20167;-48
2023/08/02 05:23:25;;;;;;;8.48;1.60;;;;;;;13.93;100.00;97553.06;5018752;28;20071;-44
2023/08/02 05:25:55;;;;;;;6.88;1.10;;;;;;;13.95;100.00;97550.63;5031052;28;20045;-45
2023/08/02 05:28:22;;;;;;;4.70;1.20;;;;;;;13.96;100.00;97552.19;5028052;28;20088;-44
2023/08/02 05:30:49;;;;;;;12.55;2.70;;;;;;;13.97;100.00;97548.19;5025732;28;20096;-45
2023/08/02 05:33:16;;;;;;;10.85;1.30;;;;;;;13.97;100.00;97553.75;5031506;28;20381;-45
2023/08/02 05:35:43;;;;;;;6.50;1.65;;;;;;;13.97;100.00;97547.41;5030860;28;20095;-44
2023/08/02 05:38:10;;;;;;;7.13;1.23;;;;;;;13.99;100.00;97547.75;5030129;28;20045;-45
2023/08/02 05:40:37;;;;;;;8.27;1.45;;;;;;;14.01;100.00;97548.84;5030838;28;20041;-53
2023/08/02 05:43:04;;;;;;;9.65;1.83;;;;;;;14.06;100.00;97552.31;5030233;28;20041;-45
2023/08/02 05:45:30;;;;;;;9.48;1.50;;;;;;;14.07;100.00;97551.06;5029090;28;20049;-45
2023/08/02 05:47:58;;;;;;;10.65;1.98;;;;;;;14.09;100.00;97552.19;5029727;28;20144;-45
2023/08/02 05:50:25;;;;;;;7.95;1.38;;;;;;;14.11;100.00;97548.97;5030108;28;20519;-48
2023/08/02 05:52:52;;;;;;;8.30;1.58;;;;;;;14.15;100.00;97546.84;5028458;28;20049;-45
2023/08/02 05:55:19;;;;;;;5.93;1.48;;;;;;;14.16;100.00;97543.63;5029501;28;20446;-44
2023/08/02 05:57:48;;;;;;;7.82;1.27;;;;;;;14.17;100.00;97538.81;5029970;28;20085;-47
2023/08/02 06:00:15;;;;;;;5.63;0.73;;;;;;;14.19;100.00;97536.38;5028249;28;20051;-48
2023/08/02 06:02:42;;;;;;;7.60;1.27;;;;;;;14.22;100.00;97543.81;5028036;28;20442;-45
2023/08/02 06:05:09;;;;;;;11.63;1.63;;;;;;;14.25;100.00;97546.50;5029643;28;20045;-45
2023/08/02 06:07:36;;;;;;;6.70;1.85;;;;;;;14.29;100.00;97544.41;5029817;28;20086;-44
2023/08/02 06:10:02;;;;;;;10.15;3.38;;;;;;;14.34;100.00;97543.84;5030018;28;20049;-45
2023/08/02 06:12:30;;;;;;;10.48;1.67;;;;;;;14.37;100.00;97542.19;5028116;28;20067;-44
2023/08/02 06:14:57;;;;;;;8.93;1.70;;;;;;;14.38;100.00;97546.50;5028837;28;20037;-45
2023/08/02 06:17:26;;;;;;;11.73;1.83;;;;;;;14.41;100.00;97538.03;5023876;28;20603;-45
2023/08/02 06:19:53;;;;;;;3.65;1.30;;;;;;;14.43;100.00;97545.94;5028828;28;20547;-44
2023/08/02 06:22:20;;;;;;;10.52;1.52;;;;;;;14.44;100.00;97536.38;5028128;28;20653;-45
2023/08/02 06:24:47;;;;;;;6.50;1.65;;;;;;;14.49;100.00;97535.78;5028153;28;20045;-45
2023/08/02 06:27:15;;;;;;;12.20;1.60;;;;;;;14.50;100.00;97540.94;5028375;28;20053;-45
2023/08/02 06:29:42;;;;;;;7.65;1.67;;;;;;;14.53;100.00;97542.78;5026840;28;20583;-45
2023/08/02 06:32:09;;;;;;;8.75;2.72;;;;;;;14.57;100.00;97551.03;5027322;28;20060;-45
2023/08/02 06:34:35;;;;;;;15.38;3.80;;;;;;;14.57;100.00;97551.03;5029657;28;20074;-46
2023/08/02 06:37:02;;;;;;;11.43;1.67;;;;;;;14.59;100.00;97554.13;5029635;28;20046;-45
2023/08/02 06:39:29;;;;;;;10.80;2.42;;;;;;;14.60;100.00;97559.28;5027187;28;20045;-45
2023/08/02 06:41:57;;;;;;;8.23;2.00;;;;;;;14.62;100.00;97558.81;5022706;28;20057;-45
2023/08/02 06:44:24;;;;;;;6.55;2.25;;;;;;;14.66;100.00;97548.34;5030631;28;20088;-45
2023/08/02 06:46:51;;;;;;;8.70;2.10;;;;;;;14.69;100.00;97564.16;5032952;28;20049;-45
2023/08/02 06:49:22;;;;;;;13.30;2.33;;;;;;;14.68;100.00;97545.88;5034182;28;20448;-45
2023/08/02 06:51:48;;;;;;;11.48;2.92;;;;;;;14.69;100.00;97555.81;5022160;28;20049;-44
2023/08/02 06:54:15;;;;;;;8.48;2.45;;;;;;;14.72;100.00;97554.88;5033902;28;20065;-45
2023/08/02 06:56:42;;;;;;;5.45;1.95;;;;;;;14.77;100.00;97565.47;5032781;28;20136;-45
2023/08/02 06:59:09;;;;;;;7.07;2.72;;;;;;;14.82;100.00;97562.13;5020575;28;20057;-48
2023/08/02 07:01:36;;;;;;;3.63;1.63;;;;;;;14.84;100.00;97562.44;5031879;28;20053;-48
2023/08/02 07:04:03;;;;;;;7.43;2.20;;;;;;;14.86;100.00;97564.75;5028168;28;20060;-45
2023/08/02 07:06:30;;;;;;;7.47;2.05;;;;;;;14.89;100.00;97561.88;5034159;28;20160;-45
2023/08/02 07:08:57;;;;;;;10.00;2.25;;;;;;;14.94;100.00;97563.28;5033862;28;20041;-45
2023/08/02 07:11:24;;;;;;;9.48;1.90;;;;;;;15.01;100.00;97563.06;5031203;28;20064;-44
2023/08/02 07:14:01;;;;;;;7.85;1.65;;;;;;;15.06;100.00;97571.59;5031292;28;20046;-46
2023/08/02 07:16:28;;;;;;;7.40;1.70;;;;;;;15.12;100.00;97586.50;5027680;28;20051;-45
2023/08/02 07:18:55;;;;;;;8.15;1.80;;;;;;;15.17;100.00;97576.78;5025992;28;20092;-45
2023/08/02 07:21:22;;;;;;;8.10;2.00;;;;;;;15.21;100.00;97577.44;5028400;28;20049;-45
2023/08/02 07:23:49;;;;;;;10.90;2.30;;;;;;;15.27;100.00;97584.75;5032415;28;20042;-44
2023/08/02 07:26:15;;;;;;;9.63;2.65;;;;;;;15.31;100.00;97590.22;5030927;28;20041;-46
2023/08/02 07:28:42;;;;;;;7.00;2.38;;;;;;;15.32;100.00;97589.00;5028087;28;20388;-44
2023/08/02 07:31:12;;;;;;;13.40;3.78;;;;;;;15.33;100.00;97596.13;5032442;28;20046;-44
2023/08/02 07:33:39;;;;;;;7.88;2.75;;;;;;;15.35;100.00;97598.47;5030652;28;20482;-45
2023/08/02 07:36:13;;;;;;;15.90;3.20;;;;;;;15.35;100.00;97595.69;5032356;28;20054;-45
2023/08/02 07:38:40;;;;;;;16.25;3.33;;;;;;;15.31;100.00;97600.59;5027076;28;20037;-45
2023/08/02 07:41:07;;;;;;;19.23;4.15;;;;;;;15.28;100.00;97607.84;5031405;28;20072;-45
2023/08/02 07:43:34;;;;;;;15.38;3.33;;;;;;;15.26;100.00;97610.31;5029595;28;20107;-45
2023/08/02 07:46:01;;;;;;;14.85;3.80;;;;;;;15.25;100.00;97612.31;5029953;28;20399;-45
2023/08/02 07:48:27;;;;;;;9.45;3.63;;;;;;;15.24;100.00;97624.72;5028372;28;20049;-44
2023/08/02 07:50:55;;;;;;;6.45;2.13;;;;;;;15.22;100.00;97616.00;5029331;28;20145;-44
2023/08/02 07:53:22;;;;;;;6.43;2.22;;;;;;;15.19;100.00;97625.28;5029323;28;20504;-45
2023/08/02 07:56:00;;;;;;;17.27;3.03;;;;;;;15.19;100.00;97619.72;5029302;28;20399;-45
2023/08/02 07:58:27;;;;;;;7.95;2.47;;;;;;;15.18;100.00;97629.31;5031087;28;20082;-45
2023/08/02 08:00:54;;;;;;;13.85;2.53;;;;;;;15.17;100.00;97629.72;5031734;28;20522;-44
2023/08/02 08:03:24;;;;;;;14.23;2.90;;;;;;;15.17;100.00;97635.31;5030587;28;20052;-44
2023/08/02 08:05:52;;;;;;;14.00;3.03;;;;;;;15.16;100.00;97640.13;5031958;28;20037;-45
2023/08/02 08:08:19;;;;;;;12.80;5.03;;;;;;;15.12;100.00;97633.88;5028109;28;20439;-45
2023/08/02 08:10:52;;;;;;;10.30;2.83;;;;;;;15.06;100.00;97646.81;5031227;28;20049;-45
2023/08/02 08:13:19;;;;;;;11.63;1.83;;;;;;;15.04;100.00;97645.72;5027572;28;20091;-46
2023/08/02 08:15:47;;;;;;;8.15;2.83;;;;;;;15.01;100.00;97655.75;5032995;28;20443;-45
2023/08/02 08:18:14;;;;;;;10.27;1.23;;;;;;;14.94;100.00;97653.22;5031429;28;20081;-45
2023/08/02 08:20:41;;;;;;;9.90;2.95;;;;;;;14.90;100.00;97651.78;5031552;28;20038;-49
2023/08/02 08:23:08;;;;;;;5.00;1.15;;;;;;;14.91;100.00;97664.47;5029839;28;20053;-45
2023/08/02 08:25:35;;;;;;;8.13;1.08;;;;;;;14.89;100.00;97662.13;5029250;28;20467;-47
2023/08/02 08:28:02;;;;;;;4.57;1.25;;;;;;;14.87;100.00;97670.16;5026375;28;20084;-44
2023/08/02 08:30:29;;;;;;;6.65;1.42;;;;;;;14.86;100.00;97663.03;5030069;28;20042;-43
2023/08/02 08:32:56;;;;;;;4.60;1.20;;;;;;;14.85;100.00;97675.38;5028564;28;20050;-46
2023/08/02 08:35:25;;;;;;;8.50;1.25;;;;;;;14.86;100.00;97685.31;5032328;28;20041;-47
2023/08/02 08:37:53;;;;;;;8.98;1.20;;;;;;;14.87;100.00;97686.09;5030162;28;20038;-45
2023/08/02 08:40:29;;;;;;;9.55;2.30;;;;;;;14.88;100.00;97693.25;5032254;28;20407;-45
2023/08/02 08:42:56;;;;;;;4.55;1.33;;;;;;;14.85;100.00;97689.31;5028519;28;20494;-44
2023/08/02 08:45:24;;;;;;;6.55;1.15;;;;;;;14.82;100.00;97695.81;5026907;28;20108;-46
2023/08/02 08:47:52;;;;;;;5.43;1.17;;;;;;;14.80;100.00;97687.09;5021833;28;20069;-44
2023/08/02 08:50:21;;;;;;;8.55;1.52;;;;;;;14.80;100.00;97701.03;5027226;28;20407;-44
2023/08/02 08:52:51;;;;;;;8.48;1.30;;;;;;;14.83;100.00;97702.91;5028484;28;20049;-45
2023/08/02 08:55:19;;;;;;;8.02;1.52;;;;;;;14.83;100.00;97707.69;5027058;28;20491;-45
2023/08/02 08:57:45;;;;;;;9.98;1.77;;;;;;;14.82;100.00;97709.72;5025897;28;20041;-44
2023/08/02 09:00:13;;;;;;;6.40;2.00;;;;;;;14.80;100.00;97709.38;5026143;28;20049;-47
2023/08/02 09:02:43;;;;;;;5.82;1.67;;;;;;;14.81;100.00;97724.09;5027673;28;20573;-45
2023/08/02 09:05:10;;;;;;;10.10;1.77;;;;;;;14.82;100.00;97726.44;5026860;28;20060;-46
2023/08/02 09:07:37;;;;;;;14.35;2.25;;;;;;;14.82;100.00;97726.44;5030099;28;20049;-46
2023/08/02 09:10:05;;;;;;;13.57;1.83;;;;;;;14.85;100.00;97731.09;5027585;28;20043;-45
2023/08/02 09:12:44;;;;;;;5.45;1.60;;;;;;;14.90;100.00;97735.34;5029914;28;21779;-45
2023/08/02 09:15:13;;;;;;;10.02;1.90;;;;;;;14.95;100.00;97730.00;5030072;28;20052;-47
2023/08/02 09:17:51;;;;;;;8.88;1.70;;;;;;;14.99;100.00;97739.00;5029744;28;20053;-45
2023/08/02 09:20:21;;;;;;;6.20;1.90;;;;;;;14.96;100.00;97733.53;5027217;28;20045;-50
2023/08/02 09:22:49;;;;;;;12.60;3.80;;;;;;;14.93;100.00;97740.78;5030013;28;20687;-49
2023/08/02 09:25:27;;;;;;;10.20;1.92;;;;;;;14.87;100.00;97748.16;5030346;28;20057;-48
2023/08/02 09:27:56;;;;;;;12.02;2.60;;;;;;;14.90;100.00;97752.06;5026817;28;20049;-48
2023/08/02 09:30:30;;;;;;;9.75;2.13;;;;;;;14.92;100.00;97766.31;5022858;28;20407;-45
2023/08/02 09:33:05;;;;;;;11.70;2.35;;;;;;;14.92;100.00;97758.75;5027320;28;20057;-45
2023/08/02 09:35:45;;;;;;;8.45;2.42;;;;;;;14.94;100.00;97770.22;5027755;28;20144;-44
2023/08/02 09:38:12;;;;;;;22.83;4.72;;;;;;;14.96;100.00;97770.53;5029310;28;20034;-45
2023/08/02 09:40:40;;;;;;;12.50;3.13;;;;;;;14.98;100.00;97778.47;5031006;28;20387;-48
2023/08/02 09:43:28;;;;;;;9.40;2.50;;;;;;;14.98;100.00;97784.81;5025712;28;20565;-48
2023/08/02 09:45:55;;;;;;;11.73;2.72;;;;;;;15.03;100.00;97789.84;5030951;28;20060;-46
2023/08/02 09:48:34;;;;;;;10.02;3.58;;;;;;;15.07;100.00;97798.84;5031164;28;20042;-44
2023/08/02 09:51:03;;;;;;;9.48;2.97;;;;;;;15.05;100.00;97798.53;5028737;28;20045;-44
2023/08/02 09:53:31;;;;;;;11.13;2.33;;;;;;;15.04;100.00;97810.88;5029033;28;20576;-44
2023/08/02 09:56:00;;;;;;;9.05;2.60;;;;;;;15.03;100.00;97814.13;5026098;28;20037;-44
2023/08/02 09:58:30;;;;;;;11.48;2.13;;;;;;;14.99;100.00;97817.00;5029398;28;20084;-44
2023/08/02 10:00:57;;;;;;;10.50;2.53;;;;;;;15.02;100.00;97815.34;5031171;28;20041;-46
2023/08/02 10:03:26;;;;;;;14.98;2.30;;;;;;;15.02;100.00;97821.69;5027158;28;20045;-44
2023/08/02 10:05:58;;;;;;;7.70;2.30;;;;;;;15.03;100.00;97820.47;5024832;28;20056;-44
2023/08/02 10:08:29;;;;;;;6.63;1.60;;;;;;;15.02;100.00;97838.41;5027326;28;20046;-48
2023/08/02 10:10:58;;;;;;;9.32;2.03;;;;;;;14.99;100.00;97838.50;5031078;28;20765;-44
2023/08/02 10:13:30;;;;;;;6.28;2.00;;;;;;;14.99;100.00;97855.22;5027635;28;20053;-45
2023/08/02 10:15:58;;;;;;;9.35;2.17;;;;;;;14.95;100.00;97860.16;5029203;28;20559;-46
2023/08/02 10:18:26;;;;;;;7.32;2.15;;;;;;;14.90;100.00;97855.91;5026730;28;20052;-44
2023/08/02 10:20:55;;;;;;;9.80;2.05;;;;;;;14.89;100.00;97862.69;5030239;28;20049;-47
2023/08/02 10:23:22;;;;;;;11.07;2.22;;;;;;;14.86;100.00;97879.50;5016258;28;20450;-45
2023/08/02 10:25:50;;;;;;;5.88;1.73;;;;;;;14.83;100.00;97872.81;5034486;28;20487;-45
2023/08/02 10:28:18;;;;;;;3.97;1.80;;;;;;;14.80;100.00;97882.06;5032517;28;20093;-48
2023/08/02 10:30:45;;;;;;;3.25;1.98;;;;;;;14.81;100.00;97885.63;5032522;28;20068;-46
2023/08/02 10:33:18;;;;;;;9.40;2.30;;;;;;;14.84;100.00;97874.41;5030714;28;20041;-46
2023/08/02 10:36:05;;;;;;;5.43;1.40;;;;;;;14.88;100.00;97888.97;5028351;28;20045;-45
2023/08/02 10:38:38;;;;;;;5.45;1.35;;;;;;;14.91;100.00;97902.03;5031677;28;20120;-44
2023/08/02 10:41:10;;;;;;;5.93;1.65;;;;;;;14.96;100.00;97909.84;5028497;28;20065;-47
2023/08/02 10:43:55;;;;;;;6.32;1.90;;;;;;;14.97;100.00;97914.19;5027106;28;20053;-46
2023/08/02 10:46:27;;;;;;;4.45;1.67;;;;;;;14.99;100.00;97906.16;5027174;28;20108;-44
2023/08/02 10:48:56;;;;;;;13.25;2.70;;;;;;;14.94;100.00;97915.06;5031578;28;20053;-44
2023/08/02 10:51:26;;;;;;;9.10;3.72;;;;;;;14.94;100.00;97926.22;5031585;28;20467;-44
2023/08/02 10:54:15;;;;;;;6.93;3.35;;;;;;;14.90;100.00;97925.56;5029451;28;20121;-45
2023/08/02 10:56:51;;;;;;;5.90;3.08;;;;;;;14.91;100.00;97920.75;5031758;28;20061;-45
2023/08/02 10:59:39;;;;;;;10.73;3.47;;;;;;;14.86;100.00;97947.16;5030016;28;20554;-45
2023/08/02 11:02:09;;;;;;;9.60;4.25;;;;;;;14.86;100.00;97946.34;5028502;28;20049;-46
2023/08/02 11:04:37;;;;;;;12.55;5.05;;;;;;;14.84;100.00;97952.38;5028206;28;20077;-46
2023/08/02 11:07:18;;;;;;;10.75;4.00;;;;;;;14.83;100.00;97953.59;5031740;28;20116;-43
2023/08/02 11:09:46;;;;;;;9.07;3.55;;;;;;;14.81;100.00;97971.97;5031736;28;20096;-43
2023/08/02 11:12:15;;;;;;;12.77;5.43;;;;;;;14.79;100.00;97964.06;5033980;28;20123;-44
2023/08/02 11:14:44;;;;;;;13.38;5.13;;;;;;;14.83;100.00;97967.53;5030743;28;20132;-43
2023/08/02 11:17:17;;;;;;;10.13;4.13;;;;;;;14.87;100.00;97973.00;5029951;28;20136;-44
2023/08/02 11:20:05;;;;;;;10.93;4.20;;;;;;;14.90;100.00;97983.25;5029864;28;20039;-43
2023/08/02 11:22:36;;;;;;;12.98;4.43;;;;;;;14.90;100.00;97988.84;5028707;28;20053;-44
2023/08/02 11:25:06;;;;;;;11.55;4.00;;;;;;;14.92;100.00;97992.75;5032450;28;20107;-43
2023/08/02 11:27:34;;;;;;;13.95;5.03;;;;;;;14.94;100.00;97993.09;5029539;28;20376;-43
2023/08/02 11:30:08;;;;;;;12.38;3.85;;;;;;;14.98;100.00;97999.34;5023732;28;20430;-46